createdAt,value
2022-11-18T00:01:32.667Z,96929.50
2022-11-18T00:04:01.940Z,96926.19
2022-11-18T00:06:31.164Z,96928.03
2022-11-18T00:09:00.328Z,96924.34
2022-11-18T00:11:46.499Z,96930.72
2022-11-18T00:14:20.927Z,96921.03
2022-11-18T00:16:52.264Z,96913.00
2022-11-18T00:19:21.800Z,96918.34
2022-11-18T00:21:50.428Z,96913.81
2022-11-18T00:24:19.248Z,96912.75
2022-11-18T00:26:47.714Z,96907.63
2022-11-18T00:29:18.066Z,96903.06
2022-11-18T00:31:46.737Z,96911.94
2022-11-18T00:34:16.596Z,96913.00
2022-11-18T00:36:45.461Z,96911.31
2022-11-18T00:39:15.570Z,96909.50
2022-11-18T00:42:01.806Z,96910.50
2022-11-18T00:44:31.722Z,96917.53
2022-11-18T00:47:00.143Z,96926.41
2022-11-18T00:49:28.543Z,96929.28
2022-11-18T00:51:57.006Z,96931.97
2022-11-18T00:54:25.433Z,96920.22
2022-11-18T00:56:53.917Z,96925.78
2022-11-18T00:59:22.418Z,96925.59
2022-11-18T01:01:52.240Z,96930.97
2022-11-18T01:04:20.894Z,96941.88
2022-11-18T01:06:49.370Z,96931.16
2022-11-18T01:09:20.570Z,96927.66
2022-11-18T01:12:06.826Z,96915.88
2022-11-18T01:14:35.274Z,96919.59
2022-11-18T01:17:05.279Z,96915.06
2022-11-18T01:19:33.720Z,96905.94
2022-11-18T01:22:03.454Z,96895.44
2022-11-18T01:24:33.049Z,96899.13
2022-11-18T01:27:01.934Z,96892.75
2022-11-18T01:29:30.405Z,96892.75
2022-11-18T01:32:23.560Z,96889.25
2022-11-18T01:34:48.776Z,96883.88
2022-11-18T01:37:17.265Z,96885.72
2022-11-18T01:39:45.703Z,96878.53
2022-11-18T01:42:16.233Z,96875.00
2022-11-18T01:45:05.149Z,96869.44
2022-11-18T01:47:36.650Z,96865.09
2022-11-18T01:50:07.800Z,96859.75
2022-11-18T01:52:36.272Z,96862.44
2022-11-18T01:55:09.249Z,96855.38
2022-11-18T01:57:37.781Z,96858.88
2022-11-18T02:00:07.992Z,96857.06
2022-11-18T02:02:37.778Z,96857.88
2022-11-18T02:05:09.641Z,96865.09
2022-11-18T02:07:40.235Z,96854.38
2022-11-18T02:10:09.626Z,96870.47
2022-11-18T02:12:38.146Z,96859.75
2022-11-18T02:15:08.186Z,96859.75
2022-11-18T02:17:46.134Z,96848.38
2022-11-18T02:20:25.774Z,96840.09
2022-11-18T02:23:58.926Z,96850.84
2022-11-18T02:27:22.284Z,96847.56
2022-11-18T02:29:54.728Z,96841.97
2022-11-18T02:32:26.284Z,96843.03
2022-11-18T02:34:58.815Z,96851.06
2022-11-18T02:37:32.488Z,96856.44
2022-11-18T02:40:03.642Z,96844.03
2022-11-18T02:42:32.543Z,96850.25
2022-11-18T02:45:05.004Z,96853.75
2022-11-18T02:47:33.494Z,96854.56
2022-11-18T02:50:05.289Z,96861.81
2022-11-18T02:52:33.914Z,96852.94
2022-11-18T02:55:02.516Z,96846.72
2022-11-18T02:57:31.041Z,96850.25
2022-11-18T02:59:59.867Z,96854.75
2022-11-18T03:02:30.036Z,96868.81
2022-11-18T03:04:58.592Z,96866.34
2022-11-18T03:07:29.153Z,96856.44
2022-11-18T03:09:57.751Z,96857.44
2022-11-18T03:12:32.243Z,96855.63
2022-11-18T03:15:08.045Z,96849.41
2022-11-18T03:17:47.006Z,96855.63
2022-11-18T03:20:21.424Z,96844.03
2022-11-18T03:22:53.396Z,96851.06
2022-11-18T03:25:23.840Z,96847.56
2022-11-18T03:27:56.878Z,96846.72
2022-11-18T03:30:25.574Z,96844.03
2022-11-18T03:33:00.133Z,96833.28
2022-11-18T03:35:30.761Z,96827.13
2022-11-18T03:38:03.831Z,96829.59
2022-11-18T03:40:32.968Z,96821.75
2022-11-18T03:43:05.420Z,96835.97
2022-11-18T03:45:36.565Z,96838.66
2022-11-18T03:48:09.841Z,96841.34
2022-11-18T03:50:41.995Z,96837.84
2022-11-18T03:53:10.440Z,96837.84
2022-11-18T03:55:41.947Z,96830.63
2022-11-18T03:58:14.023Z,96821.75
2022-11-18T04:00:44.402Z,96831.66
2022-11-18T04:03:14.275Z,96826.28
2022-11-18T04:05:44.078Z,96830.84
2022-11-18T04:08:15.154Z,96822.78
2022-11-18T04:10:47.495Z,96817.19
2022-11-18T04:13:19.673Z,96819.88
2022-11-18T04:15:48.163Z,96810.41
2022-11-18T04:18:18.076Z,96799.47
2022-11-18T04:20:46.544Z,96801.53
2022-11-18T04:23:16.176Z,96801.53
2022-11-18T04:25:44.634Z,96797.00
2022-11-18T04:28:13.081Z,96800.50
2022-11-18T04:30:41.493Z,96795.16
2022-11-18T04:33:10.340Z,96797.81
2022-11-18T04:35:40.161Z,96796.16
2022-11-18T04:38:08.564Z,96793.47
2022-11-18T04:40:37.025Z,96790.78
2022-11-18T04:43:05.424Z,96786.47
2022-11-18T04:45:33.897Z,96795.34
2022-11-18T04:48:03.939Z,96801.53
2022-11-18T04:50:32.486Z,96806.88
2022-11-18T04:53:02.320Z,96801.53
2022-11-18T04:55:30.741Z,96801.53
2022-11-18T04:57:59.169Z,96805.88
2022-11-18T05:00:27.582Z,96813.91
2022-11-18T05:02:56.055Z,96814.13
2022-11-18T05:05:24.536Z,96819.72
2022-11-18T05:07:53.133Z,96822.16
2022-11-18T05:10:22.883Z,96817.63
2022-11-18T05:12:50.325Z,96812.25
2022-11-18T05:15:19.213Z,96808.56
2022-11-18T05:17:47.855Z,96811.25
2022-11-18T05:20:17.288Z,96804.22
2022-11-18T05:22:45.820Z,96811.25
2022-11-18T05:25:14.301Z,96802.38
2022-11-18T05:27:44.132Z,96808.75
2022-11-18T05:30:14.725Z,96812.25
2022-11-18T05:32:43.161Z,96806.88
2022-11-18T05:35:11.595Z,96814.13
2022-11-18T05:37:40.015Z,96820.31
2022-11-18T05:40:10.792Z,96823.00
2022-11-18T05:42:56.770Z,96838.28
2022-11-18T05:45:26.647Z,96833.72
2022-11-18T05:48:00.871Z,96830.22
2022-11-18T05:50:29.312Z,96849.81
2022-11-18T05:52:57.825Z,96850.66
2022-11-18T05:55:28.762Z,96852.50
2022-11-18T05:57:57.398Z,96852.50
2022-11-18T06:00:27.270Z,96850.66
2022-11-18T06:02:55.804Z,96837.25
2022-11-18T06:05:24.322Z,96847.13
2022-11-18T06:07:52.785Z,96856.84
2022-11-18T06:10:24.082Z,96864.09
2022-11-18T06:12:53.929Z,96852.50
2022-11-18T06:15:24.073Z,96860.97
2022-11-18T06:17:55.989Z,96860.13
2022-11-18T06:20:24.561Z,96869.44
2022-11-18T06:22:54.847Z,96873.56
2022-11-18T06:25:23.631Z,96881.22
2022-11-18T06:27:52.504Z,96885.34
2022-11-18T06:30:21.277Z,96884.91
2022-11-18T06:32:49.858Z,96882.22
2022-11-18T06:35:19.696Z,96886.56
2022-11-18T06:37:48.411Z,96891.91
2022-11-18T06:40:17.786Z,96892.75
2022-11-18T06:43:04.041Z,96888.84
2022-11-18T06:45:35.118Z,96895.66
2022-11-18T06:48:02.714Z,96898.72
2022-11-18T06:50:32.700Z,96889.63
2022-11-18T06:53:02.035Z,96890.25
2022-11-18T06:55:30.592Z,96895.00
2022-11-18T06:57:59.191Z,96898.72
2022-11-18T07:00:27.660Z,96898.94
2022-11-18T07:02:56.142Z,96910.50
2022-11-18T07:05:24.647Z,96903.91
2022-11-18T07:07:54.648Z,96909.88
2022-11-18T07:10:23.086Z,96907.63
2022-11-18T07:12:51.574Z,96912.75
2022-11-18T07:15:20.079Z,96905.94
2022-11-18T07:17:48.597Z,96904.31
2022-11-18T07:20:17.572Z,96898.75
2022-11-18T07:22:46.164Z,96895.22
2022-11-18T07:25:16.164Z,96901.22
2022-11-18T07:27:44.656Z,96899.56
2022-11-18T07:30:14.800Z,96903.06
2022-11-18T07:32:43.391Z,96895.84
2022-11-18T07:35:11.822Z,96892.34
2022-11-18T07:37:40.451Z,96895.03
2022-11-18T07:40:11.489Z,96891.53
2022-11-18T07:42:43.636Z,96873.75
2022-11-18T07:45:12.751Z,96884.09
2022-11-18T07:47:41.253Z,96880.56
2022-11-18T07:50:10.287Z,96882.44
2022-11-18T07:52:38.772Z,96882.22
2022-11-18T07:55:08.074Z,96887.78
2022-11-18T07:57:36.691Z,96892.16
2022-11-18T08:00:08.938Z,96889.47
2022-11-18T08:02:37.367Z,96889.47
2022-11-18T08:05:06.927Z,96892.97
2022-11-18T08:07:35.495Z,96885.75
2022-11-18T08:10:04.127Z,96893.56
2022-11-18T08:12:32.665Z,96894.59
2022-11-18T08:15:01.279Z,96888.19
2022-11-18T08:17:31.156Z,96890.69
2022-11-18T08:19:59.758Z,96894.19
2022-11-18T08:22:28.492Z,96908.41
2022-11-18T08:24:57.046Z,96913.19
2022-11-18T08:27:25.559Z,96916.69
2022-11-18T08:29:55.066Z,96920.63
2022-11-18T08:32:24.156Z,96919.38
2022-11-18T08:34:53.979Z,96915.66
2022-11-18T08:37:22.473Z,96906.78
2022-11-18T08:39:50.940Z,96909.66
2022-11-18T08:42:24.429Z,96907.63
2022-11-18T08:44:53.590Z,96914.84
2022-11-18T08:47:23.416Z,96915.66
2022-11-18T08:49:53.565Z,96923.28
2022-11-18T08:52:22.091Z,96914.41
2022-11-18T08:54:50.670Z,96917.91
2022-11-18T08:57:19.564Z,96927.41
2022-11-18T08:59:48.347Z,96916.47
2022-11-18T09:02:17.517Z,96928.06
2022-11-18T09:04:47.845Z,96923.72
2022-11-18T09:07:17.854Z,96921.47
2022-11-18T09:09:46.489Z,96928.47
2022-11-18T09:12:17.546Z,96917.91
2022-11-18T09:15:13.061Z,96927.84
2022-11-18T09:17:35.914Z,96920.59
2022-11-18T09:20:04.745Z,96916.28
2022-11-18T09:22:37.649Z,96916.28
2022-11-18T09:25:07.264Z,96914.41
2022-11-18T09:27:36.552Z,96924.34
2022-11-18T09:30:06.255Z,96929.28
2022-11-18T09:32:34.739Z,96929.91
2022-11-18T09:35:03.280Z,96929.50
2022-11-18T09:37:31.717Z,96935.28
2022-11-18T09:40:01.611Z,96926.81
2022-11-18T09:42:43.306Z,96920.22
2022-11-18T09:45:23.896Z,96922.47
2022-11-18T09:47:53.079Z,96914.22
2022-11-18T09:53:19.018Z,96922.69
2022-11-18T09:55:48.916Z,96925.38
2022-11-18T09:58:21.600Z,96928.66
2022-11-18T10:00:50.120Z,96923.09
2022-11-18T10:03:24.818Z,96939.00
2022-11-18T10:05:57.812Z,96939.00
2022-11-18T10:08:28.347Z,96943.53
2022-11-18T10:11:02.050Z,96948.91
2022-11-18T10:13:41.701Z,96954.47
2022-11-18T10:16:24.374Z,96944.78
2022-11-18T10:19:01.174Z,96953.88
2022-11-18T10:21:52.569Z,96953.88
2022-11-18T10:24:22.316Z,96953.88
2022-11-18T10:26:56.523Z,96954.47
2022-11-18T10:29:25.112Z,96953.44
2022-11-18T10:31:59.724Z,96957.97
2022-11-18T10:34:32.839Z,96962.31
2022-11-18T10:37:02.975Z,96965.84
2022-11-18T10:39:31.553Z,96960.66
2022-11-18T10:42:05.024Z,96953.44
2022-11-18T10:44:38.732Z,96960.47
2022-11-18T10:47:26.847Z,96957.16
2022-11-18T10:49:56.438Z,96956.13
2022-11-18T10:52:24.974Z,96967.88
2022-11-18T10:55:20.192Z,96968.72
2022-11-18T10:57:53.877Z,96966.03
2022-11-18T11:00:50.129Z,96965.44
2022-11-18T11:03:33.358Z,96973.47
2022-11-18T11:06:42.250Z,96968.72
2022-11-18T11:09:26.544Z,96965.44
2022-11-18T11:12:01.404Z,96970.56
2022-11-18T11:14:34.080Z,96969.75
2022-11-18T11:17:08.121Z,96960.06
2022-11-18T11:19:52.140Z,96969.13
2022-11-18T11:22:21.065Z,96964.81
2022-11-18T11:24:49.773Z,96967.47
2022-11-18T11:30:29.124Z,96965.84
2022-11-18T11:33:21.555Z,96965.00
2022-11-18T11:35:58.550Z,96961.28
2022-11-18T11:38:36.889Z,96963.97
2022-11-18T11:41:11.380Z,96956.13
2022-11-18T11:43:52.180Z,96959.84
2022-11-18T11:46:29.387Z,96958.81
2022-11-18T11:49:00.482Z,96952.63
2022-11-18T11:51:34.361Z,96954.47
2022-11-18T11:54:16.540Z,96952.63
2022-11-18T11:56:48.747Z,96947.06
2022-11-18T11:59:28.790Z,96948.88
2022-11-18T12:02:40.582Z,96955.31
2022-11-18T12:05:18.892Z,96959.63
2022-11-18T12:08:03.285Z,96951.38
2022-11-18T12:10:39.429Z,96958.59
2022-11-18T12:13:21.408Z,96958.59
2022-11-18T12:15:58.133Z,96960.47
2022-11-18T12:18:33.120Z,96963.34
2022-11-18T12:21:01.661Z,96958.00
2022-11-18T12:23:30.760Z,96961.50
2022-11-18T12:26:10.095Z,96961.50
2022-11-18T12:28:41.316Z,96960.03
2022-11-18T12:31:43.235Z,96971.59
2022-11-18T12:34:31.190Z,96973.47
2022-11-18T12:36:59.662Z,96976.97
2022-11-18T12:39:49.449Z,96976.13
2022-11-18T12:42:55.792Z,96985.00
2022-11-18T12:45:58.785Z,96976.13
2022-11-18T12:48:41.050Z,96981.50
2022-11-18T12:51:46.388Z,96985.22
2022-11-18T12:54:29.908Z,96977.19
2022-11-18T12:57:01.473Z,96974.50
2022-11-18T12:59:34.992Z,96986.88
2022-11-18T13:02:21.239Z,96985.88
2022-11-18T13:05:05.929Z,96986.47
2022-11-18T13:07:59.836Z,96982.13
2022-11-18T13:10:30.378Z,96992.25
2022-11-18T13:12:58.900Z,96986.88
2022-11-18T13:15:45.406Z,96992.25
2022-11-18T13:18:16.547Z,96994.28
2022-11-18T13:20:45.697Z,96994.28
2022-11-18T13:23:59.295Z,97001.53
2022-11-18T13:26:32.971Z,96999.66
2022-11-18T13:29:36.818Z,96999.88
2022-11-18T13:32:16.966Z,96998.03
2022-11-18T13:34:48.339Z,96996.38
2022-11-18T13:37:20.388Z,96998.03
2022-11-18T13:39:50.399Z,97005.88
2022-11-18T13:42:21.446Z,97013.72
2022-11-18T13:44:54.824Z,97006.69
2022-11-18T13:47:30.109Z,97015.56
2022-11-18T13:50:06.547Z,97020.13
2022-11-18T13:52:39.031Z,97012.88
2022-11-18T13:55:19.772Z,97015.75
2022-11-18T13:57:50.055Z,97022.81
2022-11-18T14:00:23.843Z,97038.91
2022-11-18T14:02:57.850Z,97036.41
2022-11-18T14:05:27.797Z,97037.63
2022-11-18T14:08:00.128Z,97032.28
2022-11-18T14:10:39.219Z,97035.59
2022-11-18T14:13:21.446Z,97038.09
2022-11-18T14:15:49.991Z,97043.22
2022-11-18T14:18:32.077Z,97047.97
2022-11-18T14:21:01.441Z,97046.94
2022-11-18T14:23:33.335Z,97042.41
2022-11-18T14:26:04.685Z,97049.22
2022-11-18T14:28:34.574Z,97050.28
2022-11-18T14:31:25.247Z,97054.59
2022-11-18T14:34:18.290Z,97049.22
2022-11-18T14:36:46.806Z,97053.56
2022-11-18T14:39:27.071Z,97060.59
2022-11-18T14:41:57.966Z,97060.38
2022-11-18T14:44:27.653Z,97067.41
2022-11-18T14:46:59.107Z,97072.78
2022-11-18T14:49:30.100Z,97070.09
2022-11-18T14:51:58.745Z,97068.88
2022-11-18T14:54:28.183Z,97062.44
2022-11-18T14:57:01.235Z,97073.19
2022-11-18T14:59:29.774Z,97078.75
2022-11-18T15:01:58.796Z,97088.47
2022-11-18T15:04:27.467Z,97078.56
2022-11-18T15:06:56.313Z,97085.97
2022-11-18T15:09:24.819Z,97083.94
2022-11-18T15:11:53.685Z,97095.69
2022-11-18T15:14:23.584Z,97102.72
2022-11-18T15:16:52.052Z,97108.06
2022-11-18T15:19:20.676Z,97100.84
2022-11-18T15:21:49.151Z,97102.06
2022-11-18T15:24:17.944Z,97098.78
2022-11-18T15:26:47.692Z,97104.75
2022-11-18T15:29:19.798Z,97096.72
2022-11-18T15:31:49.720Z,97102.91
2022-11-18T15:34:20.439Z,97104.75
2022-11-18T15:36:49.435Z,97108.25
2022-11-18T15:39:18.156Z,97108.25
2022-11-18T15:41:46.731Z,97106.44
2022-11-18T15:44:16.146Z,97119.00
2022-11-18T15:46:47.928Z,97113.63
2022-11-18T15:49:18.757Z,97119.00
2022-11-18T15:51:47.266Z,97123.56
2022-11-18T15:54:16.975Z,97127.28
2022-11-18T15:56:45.837Z,97127.28
2022-11-18T15:59:15.124Z,97124.59
2022-11-18T16:01:44.693Z,97127.28
2022-11-18T16:04:14.386Z,97128.09
2022-11-18T16:06:44.538Z,97133.47
2022-11-18T16:09:13.589Z,97133.47
2022-11-18T16:11:59.636Z,97131.00
2022-11-18T16:14:28.182Z,97130.78
2022-11-18T16:16:57.362Z,97123.78
2022-11-18T16:19:27.172Z,97129.97
2022-11-18T16:21:57.970Z,97132.63
2022-11-18T16:24:27.842Z,97140.69
2022-11-18T16:26:56.619Z,97140.88
2022-11-18T16:29:25.618Z,97146.25
2022-11-18T16:31:54.986Z,97150.78
2022-11-18T16:34:24.697Z,97151.84
2022-11-18T16:36:56.730Z,97144.78
2022-11-18T16:39:27.361Z,97151.84
2022-11-18T16:42:00.708Z,97151.84
2022-11-18T16:44:35.307Z,97160.91
2022-11-18T16:47:08.958Z,97167.13
2022-11-18T16:49:39.244Z,97176.00
2022-11-18T16:52:20.261Z,97174.31
2022-11-18T16:54:48.727Z,97174.31
2022-11-18T16:57:17.362Z,97177.00
2022-11-18T16:59:45.854Z,97168.34
2022-11-18T17:02:15.257Z,97182.59
2022-11-18T17:04:44.727Z,97174.31
2022-11-18T17:07:13.729Z,97185.06
2022-11-18T17:09:43.944Z,97191.47
2022-11-18T17:12:12.453Z,97198.47
2022-11-18T17:14:41.252Z,97195.78
2022-11-18T17:17:09.676Z,97198.47
2022-11-18T17:19:38.206Z,97189.41
2022-11-18T17:22:08.324Z,97184.03
2022-11-18T17:24:37.043Z,97190.41
2022-11-18T17:27:06.956Z,97195.78
2022-11-18T17:29:35.681Z,97205.69
2022-11-18T17:32:04.223Z,97193.97
2022-11-18T17:34:33.058Z,97193.97
2022-11-18T17:37:06.574Z,97208.19
2022-11-18T17:39:35.480Z,97210.88
2022-11-18T17:42:17.833Z,97209.84
2022-11-18T17:44:47.679Z,97209.84
2022-11-18T17:47:17.685Z,97218.94
2022-11-18T17:49:46.229Z,97214.38
2022-11-18T17:52:14.711Z,97211.88
2022-11-18T17:54:43.256Z,97218.94
2022-11-18T17:57:11.778Z,97218.09
2022-11-18T17:59:40.342Z,97228.63
2022-11-18T18:02:11.699Z,97229.66
2022-11-18T18:04:40.300Z,97221.63
2022-11-18T18:07:08.919Z,97218.09
2022-11-18T18:09:38.094Z,97217.06
2022-11-18T18:12:27.563Z,97222.44
2022-11-18T18:14:55.126Z,97233.16
2022-11-18T18:17:25.221Z,97231.31
2022-11-18T18:19:53.752Z,97237.72
2022-11-18T18:22:22.481Z,97234.00
2022-11-18T18:24:51.151Z,97228.63
2022-11-18T18:27:19.903Z,97230.50
2022-11-18T18:29:48.983Z,97233.16
2022-11-18T18:32:17.986Z,97235.84
2022-11-18T18:34:48.040Z,97232.53
2022-11-18T18:37:16.648Z,97239.59
2022-11-18T18:39:45.532Z,97251.13
2022-11-18T18:42:14.171Z,97250.31
2022-11-18T18:45:00.129Z,97244.94
2022-11-18T18:47:28.880Z,97251.78
2022-11-18T18:49:59.224Z,97250.72
2022-11-18T18:52:27.861Z,97248.25
2022-11-18T18:54:57.033Z,97249.09
2022-11-18T18:57:25.811Z,97257.97
2022-11-18T18:59:54.528Z,97266.03
2022-11-18T19:02:23.295Z,97275.94
2022-11-18T19:04:51.759Z,97269.72
2022-11-18T19:07:21.857Z,97268.88
2022-11-18T19:09:50.385Z,97274.25
2022-11-18T19:12:36.517Z,97279.63
2022-11-18T19:15:05.879Z,97279.63
2022-11-18T19:17:34.539Z,97292.03
2022-11-18T19:20:20.681Z,97270.56
2022-11-18T19:22:50.669Z,97271.38
2022-11-18T19:25:19.390Z,97277.56
2022-11-18T19:27:49.116Z,97283.75
2022-11-18T19:30:18.286Z,97280.25
2022-11-18T19:32:46.810Z,97281.28
2022-11-18T19:35:15.749Z,97276.94
2022-11-18T19:37:44.373Z,97278.63
2022-11-18T19:40:14.845Z,97300.91
2022-11-18T19:42:43.479Z,97300.09
2022-11-18T19:45:12.459Z,97299.03
2022-11-18T19:47:41.067Z,97296.53
2022-11-18T19:50:10.928Z,97300.28
2022-11-18T19:52:39.381Z,97300.47
2022-11-18T19:55:08.676Z,97297.78
2022-11-18T19:57:38.515Z,97289.94
2022-11-18T20:00:09.011Z,97291.59
2022-11-18T20:02:38.917Z,97293.44
2022-11-18T20:05:25.933Z,97296.13
2022-11-18T20:07:56.522Z,97301.50
2022-11-18T20:10:25.155Z,97288.06
2022-11-18T20:12:56.299Z,97296.53
2022-11-18T20:15:24.810Z,97307.25
2022-11-18T20:17:53.643Z,97309.72
2022-11-18T20:20:22.726Z,97311.41
2022-11-18T20:22:52.350Z,97324.00
2022-11-18T20:25:21.099Z,97320.47
2022-11-18T20:27:49.611Z,97324.00
2022-11-18T20:30:19.709Z,97332.06
2022-11-18T20:32:48.312Z,97330.38
2022-11-18T20:35:17.220Z,97341.09
2022-11-18T20:37:45.991Z,97336.56
2022-11-18T20:40:14.589Z,97331.41
2022-11-18T20:43:00.768Z,97328.72
2022-11-18T20:45:30.653Z,97328.91
2022-11-18T20:47:59.366Z,97333.28
2022-11-18T20:50:27.786Z,97322.53
2022-11-18T20:52:56.613Z,97334.91
2022-11-18T20:55:25.111Z,97333.28
2022-11-18T20:57:53.642Z,97347.50
2022-11-18T21:00:22.304Z,97344.00
2022-11-18T21:02:52.254Z,97340.47
2022-11-18T21:05:20.696Z,97335.09
2022-11-18T21:07:50.697Z,97338.63
2022-11-18T21:10:19.714Z,97353.88
2022-11-18T21:13:05.886Z,97358.25
2022-11-18T21:15:34.437Z,97362.78
2022-11-18T21:18:04.814Z,97352.88
2022-11-18T21:20:51.071Z,97352.06
2022-11-18T21:23:19.581Z,97357.59
2022-11-18T21:25:48.144Z,97361.13
2022-11-18T21:28:16.895Z,97359.25
2022-11-18T21:30:45.435Z,97359.25
2022-11-18T21:33:15.308Z,97372.06
2022-11-18T21:35:43.793Z,97378.25
2022-11-18T21:38:12.325Z,97393.31
2022-11-18T21:40:40.785Z,97388.78
2022-11-18T21:43:09.413Z,97378.03
2022-11-18T21:45:37.877Z,97378.03
2022-11-18T21:48:07.672Z,97386.09
2022-11-18T21:50:37.678Z,97386.94
2022-11-18T21:53:06.252Z,97388.16
2022-11-18T21:55:34.766Z,97391.47
2022-11-18T21:58:04.287Z,97402.19
2022-11-18T22:00:33.164Z,97397.69
2022-11-18T22:03:01.733Z,97402.41
2022-11-18T22:05:30.327Z,97397.69
2022-11-18T22:08:00.138Z,97393.13
2022-11-18T22:10:28.783Z,97389.63
2022-11-18T22:12:57.651Z,97393.13
2022-11-18T22:15:26.178Z,97394.78
2022-11-18T22:17:54.633Z,97394.78
2022-11-18T22:20:23.135Z,97393.97
2022-11-18T22:22:51.631Z,97400.38
2022-11-18T22:25:21.484Z,97409.25
2022-11-18T22:27:49.965Z,97419.97
2022-11-18T22:30:18.642Z,97419.16
2022-11-18T22:32:47.155Z,97418.28
2022-11-18T22:35:17.180Z,97425.34
2022-11-18T22:37:45.728Z,97426.34
2022-11-18T22:40:14.653Z,97424.53
2022-11-18T22:42:49.303Z,97423.06
2022-11-18T22:45:18.281Z,97429.03
2022-11-18T22:47:46.974Z,97426.16
2022-11-18T22:50:16.553Z,97424.53
2022-11-18T22:52:45.475Z,97429.88
2022-11-18T22:55:13.986Z,97420.97
2022-11-18T22:57:44.231Z,97430.06
2022-11-18T23:00:16.086Z,97431.94
2022-11-18T23:02:44.556Z,97437.09
2022-11-18T23:05:12.989Z,97436.25
2022-11-18T23:07:41.566Z,97436.47
2022-11-18T23:10:12.333Z,97428.41
2022-11-18T23:12:58.391Z,97440.81
2022-11-18T23:15:28.266Z,97446.38
2022-11-18T23:17:56.715Z,97446.38
2022-11-18T23:20:25.257Z,97433.78
2022-11-18T23:22:53.803Z,97437.28
2022-11-18T23:25:22.304Z,97440.16
2022-11-18T23:27:54.201Z,97445.53
2022-11-18T23:30:23.421Z,97438.50
2022-11-18T23:32:55.934Z,97450.06
2022-11-18T23:35:24.827Z,97445.53
2022-11-18T23:37:54.615Z,97447.38
2022-11-18T23:40:23.101Z,97450.88
2022-11-18T23:42:51.593Z,97458.94
2022-11-18T23:45:20.218Z,97455.25
2022-11-18T23:47:48.667Z,97457.13
2022-11-18T23:50:18.643Z,97455.44
2022-11-18T23:52:47.198Z,97451.75
2022-11-18T23:55:15.709Z,97457.13
2022-11-18T23:57:44.193Z,97451.75
